CheckWX is a tool to help pilots better visualize weather data.  It is not intended as a substitute for an official pre-flight weather briefing.

09:04:36 UTC

KOQT METAR
Oak Ridge Airport
Tennessee, USA
Current

12 mins ago

KOQT 220853Z AUTO 00000KT 10SM CLR M06/M10 A3044 RMK AO2 SLP327 T10561100 53001
Observed
Jan-22 @ 08:53 UTC
Visibility
10 SM
Flight Rules
VFR
Cloud Levels
  • Clear skies
Temperature
-6°C / 21°F
Dewpoint
-10°C / 14°F
Humidity
74%
Altimeter
30.44" Hg
Pressure
1030.82 hPa
Previous

1 hour ago

KOQT 220753Z AUTO 00000KT 10SM CLR M05/M10 A3040 RMK AO2 SLP314 T10501100
Observed
Jan-22 @ 07:53 UTC
Visibility
10 SM
Flight Rules
VFR
Cloud Levels
  • Clear skies
Temperature
-5°C / 23°F
Dewpoint
-10°C / 14°F
Humidity
68%
Altimeter
30.4" Hg
Pressure
1029.42 hPa
Previous

2 hours ago

KOQT 220653Z AUTO 00000KT 10SM CLR M04/M09 A3041 RMK AO2 SLP316 T10441094
Observed
Jan-22 @ 06:53 UTC
Visibility
10 SM
Flight Rules
VFR
Cloud Levels
  • Clear skies
Temperature
-4°C / 25°F
Dewpoint
-9°C / 16°F
Humidity
69%
Altimeter
30.41" Hg
Pressure
1029.82 hPa